sensor_id;sensor_type;location;lat;lon;timestamp;P1;durP1;ratioP1;P2;durP2;ratioP2
18949;SDS011;9608;49.288;8.130;2023-12-22T00:01:39;2.53;;;1.50;;
18949;SDS011;9608;49.288;8.130;2023-12-22T00:04:05;1.30;;;0.30;;
18949;SDS011;9608;49.288;8.130;2023-12-22T00:06:32;2.67;;;0.97;;
18949;SDS011;9608;49.288;8.130;2023-12-22T00:08:59;1.20;;;0.27;;
18949;SDS011;9608;49.288;8.130;2023-12-22T00:11:26;3.20;;;0.60;;
18949;SDS011;9608;49.288;8.130;2023-12-22T00:13:54;1.40;;;0.40;;
18949;SDS011;9608;49.288;8.130;2023-12-22T00:16:20;1.60;;;0.40;;
18949;SDS011;9608;49.288;8.130;2023-12-22T00:18:47;1.20;;;0.20;;
18949;SDS011;9608;49.288;8.130;2023-12-22T00:21:14;3.30;;;0.60;;
18949;SDS011;9608;49.288;8.130;2023-12-22T00:23:40;1.83;;;0.50;;
18949;SDS011;9608;49.288;8.130;2023-12-22T00:26:07;1.30;;;0.33;;
18949;SDS011;9608;49.288;8.130;2023-12-22T00:28:34;1.60;;;0.70;;
18949;SDS011;9608;49.288;8.130;2023-12-22T00:31:02;1.47;;;0.40;;
18949;SDS011;9608;49.288;8.130;2023-12-22T00:33:29;2.40;;;0.50;;
18949;SDS011;9608;49.288;8.130;2023-12-22T00:35:56;1.77;;;0.47;;
18949;SDS011;9608;49.288;8.130;2023-12-22T00:38:24;4.50;;;0.77;;
18949;SDS011;9608;49.288;8.130;2023-12-22T00:40:50;1.13;;;0.20;;
18949;SDS011;9608;49.288;8.130;2023-12-22T00:43:17;1.10;;;0.20;;
18949;SDS011;9608;49.288;8.130;2023-12-22T00:45:43;1.20;;;0.40;;
18949;SDS011;9608;49.288;8.130;2023-12-22T00:48:12;3.43;;;1.70;;
18949;SDS011;9608;49.288;8.130;2023-12-22T00:50:38;1.20;;;0.30;;
18949;SDS011;9608;49.288;8.130;2023-12-22T00:53:05;1.10;;;0.20;;
18949;SDS011;9608;49.288;8.130;2023-12-22T00:55:32;4.60;;;0.50;;
18949;SDS011;9608;49.288;8.130;2023-12-22T00:57:58;1.57;;;0.53;;
18949;SDS011;9608;49.288;8.130;2023-12-22T01:00:25;1.50;;;0.50;;
18949;SDS011;9608;49.288;8.130;2023-12-22T01:02:52;4.30;;;0.97;;
18949;SDS011;9608;49.288;8.130;2023-12-22T01:05:20;6.37;;;1.20;;
18949;SDS011;9608;49.288;8.130;2023-12-22T01:07:46;1.30;;;0.40;;
18949;SDS011;9608;49.288;8.130;2023-12-22T01:10:13;3.50;;;0.43;;
18949;SDS011;9608;49.288;8.130;2023-12-22T01:12:40;1.60;;;0.80;;
18949;SDS011;9608;49.288;8.130;2023-12-22T01:15:06;1.40;;;0.50;;
18949;SDS011;9608;49.288;8.130;2023-12-22T01:17:34;1.27;;;0.30;;
18949;SDS011;9608;49.288;8.130;2023-12-22T01:20:00;2.13;;;0.80;;
18949;SDS011;9608;49.288;8.130;2023-12-22T01:22:29;5.90;;;0.87;;
18949;SDS011;9608;49.288;8.130;2023-12-22T01:24:57;1.10;;;0.20;;
18949;SDS011;9608;49.288;8.130;2023-12-22T01:27:23;4.77;;;1.10;;
18949;SDS011;9608;49.288;8.130;2023-12-22T01:29:50;1.63;;;0.40;;
18949;SDS011;9608;49.288;8.130;2023-12-22T01:32:17;1.20;;;0.37;;
18949;SDS011;9608;49.288;8.130;2023-12-22T01:34:44;1.10;;;0.20;;
18949;SDS011;9608;49.288;8.130;2023-12-22T01:37:11;2.50;;;1.30;;
18949;SDS011;9608;49.288;8.130;2023-12-22T01:39:39;1.30;;;0.30;;
18949;SDS011;9608;49.288;8.130;2023-12-22T01:42:05;2.30;;;0.40;;
18949;SDS011;9608;49.288;8.130;2023-12-22T01:44:32;2.27;;;0.93;;
18949;SDS011;9608;49.288;8.130;2023-12-22T01:46:59;2.80;;;0.30;;
18949;SDS011;9608;49.288;8.130;2023-12-22T01:49:26;1.30;;;0.40;;
18949;SDS011;9608;49.288;8.130;2023-12-22T01:51:54;5.67;;;1.13;;
18949;SDS011;9608;49.288;8.130;2023-12-22T01:54:21;6.90;;;0.50;;
18949;SDS011;9608;49.288;8.130;2023-12-22T01:56:49;9.03;;;0.40;;
18949;SDS011;9608;49.288;8.130;2023-12-22T01:59:16;2.10;;;0.80;;
18949;SDS011;9608;49.288;8.130;2023-12-22T02:01:42;4.40;;;0.40;;
18949;SDS011;9608;49.288;8.130;2023-12-22T02:04:10;1.50;;;0.60;;
18949;SDS011;9608;49.288;8.130;2023-12-22T02:06:38;8.03;;;1.23;;
18949;SDS011;9608;49.288;8.130;2023-12-22T02:09:05;2.27;;;0.50;;
18949;SDS011;9608;49.288;8.130;2023-12-22T02:11:31;6.00;;;1.00;;
18949;SDS011;9608;49.288;8.130;2023-12-22T02:13:59;1.10;;;0.20;;
18949;SDS011;9608;49.288;8.130;2023-12-22T02:16:29;6.63;;;2.53;;
18949;SDS011;9608;49.288;8.130;2023-12-22T02:19:04;2.70;;;0.60;;
18949;SDS011;9608;49.288;8.130;2023-12-22T02:24:29;5.63;;;1.30;;
18949;SDS011;9608;49.288;8.130;2023-12-22T02:26:57;1.87;;;0.87;;
18949;SDS011;9608;49.288;8.130;2023-12-22T02:29:31;2.80;;;1.07;;
18949;SDS011;9608;49.288;8.130;2023-12-22T02:32:00;2.80;;;0.30;;
18949;SDS011;9608;49.288;8.130;2023-12-22T02:34:32;1.50;;;0.70;;
18949;SDS011;9608;49.288;8.130;2023-12-22T02:37:04;1.43;;;0.50;;
18949;SDS011;9608;49.288;8.130;2023-12-22T02:39:34;1.20;;;0.37;;
18949;SDS011;9608;49.288;8.130;2023-12-22T02:42:02;1.93;;;0.60;;
18949;SDS011;9608;49.288;8.130;2023-12-22T02:44:30;1.10;;;0.30;;
18949;SDS011;9608;49.288;8.130;2023-12-22T02:46:57;4.87;;;1.00;;
18949;SDS011;9608;49.288;8.130;2023-12-22T02:49:24;7.53;;;1.10;;
18949;SDS011;9608;49.288;8.130;2023-12-22T02:51:50;2.13;;;0.40;;
18949;SDS011;9608;49.288;8.130;2023-12-22T02:54:17;2.23;;;0.60;;
18949;SDS011;9608;49.288;8.130;2023-12-22T02:56:46;4.67;;;1.20;;
18949;SDS011;9608;49.288;8.130;2023-12-22T02:59:13;1.20;;;0.23;;
18949;SDS011;9608;49.288;8.130;2023-12-22T03:01:40;5.17;;;1.27;;
18949;SDS011;9608;49.288;8.130;2023-12-22T03:04:06;4.40;;;0.67;;
18949;SDS011;9608;49.288;8.130;2023-12-22T03:06:33;2.03;;;0.50;;
18949;SDS011;9608;49.288;8.130;2023-12-22T03:09:00;3.10;;;0.50;;
18949;SDS011;9608;49.288;8.130;2023-12-22T03:11:27;1.23;;;0.27;;
18949;SDS011;9608;49.288;8.130;2023-12-22T03:13:55;2.07;;;0.53;;
18949;SDS011;9608;49.288;8.130;2023-12-22T03:16:22;13.30;;;1.17;;
18949;SDS011;9608;49.288;8.130;2023-12-22T03:18:48;3.77;;;1.53;;
18949;SDS011;9608;49.288;8.130;2023-12-22T03:21:16;3.13;;;0.60;;
18949;SDS011;9608;49.288;8.130;2023-12-22T03:23:43;1.20;;;0.30;;
18949;SDS011;9608;49.288;8.130;2023-12-22T03:26:10;4.33;;;0.70;;
18949;SDS011;9608;49.288;8.130;2023-12-22T03:28:37;1.20;;;0.27;;
18949;SDS011;9608;49.288;8.130;2023-12-22T03:31:05;1.33;;;0.30;;
18949;SDS011;9608;49.288;8.130;2023-12-22T03:33:32;1.40;;;0.30;;
18949;SDS011;9608;49.288;8.130;2023-12-22T03:35:59;1.40;;;0.50;;
18949;SDS011;9608;49.288;8.130;2023-12-22T03:38:26;1.20;;;0.30;;
18949;SDS011;9608;49.288;8.130;2023-12-22T03:40:52;1.40;;;0.60;;
18949;SDS011;9608;49.288;8.130;2023-12-22T03:43:19;1.30;;;0.27;;
18949;SDS011;9608;49.288;8.130;2023-12-22T03:45:46;4.93;;;0.30;;
18949;SDS011;9608;49.288;8.130;2023-12-22T03:48:14;2.90;;;0.37;;
18949;SDS011;9608;49.288;8.130;2023-12-22T03:50:40;2.90;;;0.50;;
18949;SDS011;9608;49.288;8.130;2023-12-22T03:53:07;1.40;;;0.57;;
18949;SDS011;9608;49.288;8.130;2023-12-22T03:55:34;1.50;;;0.63;;
18949;SDS011;9608;49.288;8.130;2023-12-22T03:58:01;1.40;;;0.40;;
18949;SDS011;9608;49.288;8.130;2023-12-22T04:00:29;2.90;;;0.63;;
18949;SDS011;9608;49.288;8.130;2023-12-22T04:02:56;1.10;;;0.20;;
18949;SDS011;9608;49.288;8.130;2023-12-22T04:05:24;2.90;;;0.30;;
18949;SDS011;9608;49.288;8.130;2023-12-22T04:07:51;1.27;;;0.40;;
18949;SDS011;9608;49.288;8.130;2023-12-22T04:10:18;1.20;;;0.30;;
18949;SDS011;9608;49.288;8.130;2023-12-22T04:12:44;2.90;;;1.43;;
18949;SDS011;9608;49.288;8.130;2023-12-22T04:15:11;2.27;;;0.50;;
18949;SDS011;9608;49.288;8.130;2023-12-22T04:17:38;20.27;;;1.50;;
18949;SDS011;9608;49.288;8.130;2023-12-22T04:20:06;4.40;;;0.53;;
18949;SDS011;9608;49.288;8.130;2023-12-22T04:22:34;2.93;;;1.20;;
18949;SDS011;9608;49.288;8.130;2023-12-22T04:25:01;3.10;;;0.90;;
18949;SDS011;9608;49.288;8.130;2023-12-22T04:27:28;4.60;;;1.30;;
18949;SDS011;9608;49.288;8.130;2023-12-22T04:29:54;1.40;;;0.60;;
18949;SDS011;9608;49.288;8.130;2023-12-22T04:32:24;1.67;;;0.60;;
18949;SDS011;9608;49.288;8.130;2023-12-22T04:34:50;2.20;;;0.50;;
18949;SDS011;9608;49.288;8.130;2023-12-22T04:37:17;8.13;;;0.53;;
18949;SDS011;9608;49.288;8.130;2023-12-22T04:39:45;1.30;;;0.20;;
18949;SDS011;9608;49.288;8.130;2023-12-22T04:42:12;5.63;;;0.73;;
18949;SDS011;9608;49.288;8.130;2023-12-22T04:44:38;1.40;;;0.30;;
18949;SDS011;9608;49.288;8.130;2023-12-22T04:47:05;3.00;;;1.17;;
18949;SDS011;9608;49.288;8.130;2023-12-22T04:49:32;2.60;;;1.23;;
18949;SDS011;9608;49.288;8.130;2023-12-22T04:51:58;5.03;;;1.23;;
18949;SDS011;9608;49.288;8.130;2023-12-22T04:54:25;1.47;;;0.40;;
18949;SDS011;9608;49.288;8.130;2023-12-22T04:56:53;4.90;;;1.70;;
18949;SDS011;9608;49.288;8.130;2023-12-22T04:59:20;4.67;;;0.60;;
18949;SDS011;9608;49.288;8.130;2023-12-22T05:01:47;1.10;;;0.20;;
18949;SDS011;9608;49.288;8.130;2023-12-22T05:04:13;8.20;;;1.80;;
18949;SDS011;9608;49.288;8.130;2023-12-22T05:06:40;1.93;;;0.50;;
18949;SDS011;9608;49.288;8.130;2023-12-22T05:09:06;2.57;;;0.50;;
18949;SDS011;9608;49.288;8.130;2023-12-22T05:11:33;2.83;;;0.50;;
18949;SDS011;9608;49.288;8.130;2023-12-22T05:14:02;1.50;;;0.60;;
18949;SDS011;9608;49.288;8.130;2023-12-22T05:16:28;4.80;;;1.90;;
18949;SDS011;9608;49.288;8.130;2023-12-22T05:18:56;2.70;;;0.93;;
18949;SDS011;9608;49.288;8.130;2023-12-22T05:21:23;2.83;;;0.70;;
18949;SDS011;9608;49.288;8.130;2023-12-22T05:23:49;1.27;;;0.40;;
18949;SDS011;9608;49.288;8.130;2023-12-22T05:26:17;3.27;;;0.67;;
18949;SDS011;9608;49.288;8.130;2023-12-22T05:28:44;9.33;;;0.97;;
18949;SDS011;9608;49.288;8.130;2023-12-22T05:31:12;26.87;;;2.60;;
18949;SDS011;9608;49.288;8.130;2023-12-22T05:33:38;5.53;;;1.67;;
18949;SDS011;9608;49.288;8.130;2023-12-22T05:36:05;6.97;;;0.60;;
18949;SDS011;9608;49.288;8.130;2023-12-22T05:38:32;5.07;;;0.93;;
18949;SDS011;9608;49.288;8.130;2023-12-22T05:40:59;1.63;;;0.90;;
18949;SDS011;9608;49.288;8.130;2023-12-22T05:43:25;14.73;;;1.87;;
18949;SDS011;9608;49.288;8.130;2023-12-22T05:45:52;6.00;;;0.93;;
18949;SDS011;9608;49.288;8.130;2023-12-22T05:48:20;8.33;;;1.87;;
18949;SDS011;9608;49.288;8.130;2023-12-22T05:50:47;4.50;;;0.97;;
18949;SDS011;9608;49.288;8.130;2023-12-22T05:53:14;1.67;;;0.60;;
18949;SDS011;9608;49.288;8.130;2023-12-22T05:55:41;2.07;;;0.80;;
18949;SDS011;9608;49.288;8.130;2023-12-22T05:58:07;4.57;;;0.97;;
18949;SDS011;9608;49.288;8.130;2023-12-22T06:00:34;5.53;;;0.90;;
18949;SDS011;9608;49.288;8.130;2023-12-22T06:03:01;8.20;;;0.90;;
18949;SDS011;9608;49.288;8.130;2023-12-22T06:05:30;6.20;;;1.07;;
18949;SDS011;9608;49.288;8.130;2023-12-22T06:07:56;1.77;;;0.57;;
18949;SDS011;9608;49.288;8.130;2023-12-22T06:10:23;5.37;;;0.93;;
18949;SDS011;9608;49.288;8.130;2023-12-22T06:12:50;1.90;;;0.50;;
18949;SDS011;9608;49.288;8.130;2023-12-22T06:15:16;2.83;;;1.43;;
18949;SDS011;9608;49.288;8.130;2023-12-22T06:17:43;3.87;;;1.03;;
18949;SDS011;9608;49.288;8.130;2023-12-22T06:20:10;1.83;;;0.43;;
18949;SDS011;9608;49.288;8.130;2023-12-22T06:22:38;4.87;;;2.23;;
18949;SDS011;9608;49.288;8.130;2023-12-22T06:25:05;1.67;;;0.43;;
18949;SDS011;9608;49.288;8.130;2023-12-22T06:27:33;1.30;;;0.40;;
18949;SDS011;9608;49.288;8.130;2023-12-22T06:29:59;1.50;;;0.40;;
18949;SDS011;9608;49.288;8.130;2023-12-22T06:32:26;4.23;;;0.73;;
18949;SDS011;9608;49.288;8.130;2023-12-22T06:34:53;1.50;;;0.67;;
18949;SDS011;9608;49.288;8.130;2023-12-22T06:37:19;1.77;;;0.50;;
18949;SDS011;9608;49.288;8.130;2023-12-22T06:39:47;2.03;;;0.50;;
18949;SDS011;9608;49.288;8.130;2023-12-22T06:42:15;2.30;;;0.53;;
18949;SDS011;9608;49.288;8.130;2023-12-22T06:44:41;13.57;;;1.23;;
18949;SDS011;9608;49.288;8.130;2023-12-22T06:47:09;2.40;;;0.67;;
18949;SDS011;9608;49.288;8.130;2023-12-22T06:49:35;1.10;;;0.30;;
18949;SDS011;9608;49.288;8.130;2023-12-22T06:52:03;1.10;;;0.20;;
18949;SDS011;9608;49.288;8.130;2023-12-22T06:54:31;1.20;;;0.50;;
18949;SDS011;9608;49.288;8.130;2023-12-22T06:57:00;3.70;;;0.90;;
18949;SDS011;9608;49.288;8.130;2023-12-22T06:59:27;1.37;;;0.60;;
18949;SDS011;9608;49.288;8.130;2023-12-22T07:01:54;2.13;;;0.77;;
18949;SDS011;9608;49.288;8.130;2023-12-22T07:07:29;2.00;;;0.50;;
18949;SDS011;9608;49.288;8.130;2023-12-22T07:09:56;5.47;;;1.23;;
18949;SDS011;9608;49.288;8.130;2023-12-22T07:12:24;1.40;;;0.70;;
18949;SDS011;9608;49.288;8.130;2023-12-22T07:14:51;2.00;;;1.10;;
18949;SDS011;9608;49.288;8.130;2023-12-22T07:17:18;2.20;;;1.10;;
18949;SDS011;9608;49.288;8.130;2023-12-22T07:19:45;2.77;;;0.93;;
18949;SDS011;9608;49.288;8.130;2023-12-22T07:22:12;2.43;;;1.20;;
18949;SDS011;9608;49.288;8.130;2023-12-22T07:24:40;1.20;;;0.43;;
18949;SDS011;9608;49.288;8.130;2023-12-22T07:27:07;2.43;;;0.90;;
18949;SDS011;9608;49.288;8.130;2023-12-22T07:29:36;2.33;;;1.40;;
18949;SDS011;9608;49.288;8.130;2023-12-22T07:32:03;1.77;;;0.90;;
18949;SDS011;9608;49.288;8.130;2023-12-22T07:34:31;1.20;;;0.40;;
18949;SDS011;9608;49.288;8.130;2023-12-22T07:36:57;1.20;;;0.57;;
18949;SDS011;9608;49.288;8.130;2023-12-22T07:39:24;1.50;;;0.90;;
18949;SDS011;9608;49.288;8.130;2023-12-22T07:41:52;8.63;;;1.43;;
18949;SDS011;9608;49.288;8.130;2023-12-22T07:44:19;3.00;;;0.80;;
18949;SDS011;9608;49.288;8.130;2023-12-22T07:46:53;6.20;;;1.00;;
18949;SDS011;9608;49.288;8.130;2023-12-22T07:49:22;1.20;;;0.50;;
18949;SDS011;9608;49.288;8.130;2023-12-22T07:51:49;4.27;;;1.33;;
18949;SDS011;9608;49.288;8.130;2023-12-22T07:54:17;1.50;;;0.70;;
18949;SDS011;9608;49.288;8.130;2023-12-22T07:56:45;1.50;;;0.90;;
18949;SDS011;9608;49.288;8.130;2023-12-22T07:59:12;15.03;;;1.63;;
18949;SDS011;9608;49.288;8.130;2023-12-22T08:01:39;7.90;;;1.70;;
18949;SDS011;9608;49.288;8.130;2023-12-22T08:04:08;3.80;;;1.67;;
18949;SDS011;9608;49.288;8.130;2023-12-22T08:06:35;6.30;;;1.30;;
18949;SDS011;9608;49.288;8.130;2023-12-22T08:09:02;5.10;;;1.83;;
18949;SDS011;9608;49.288;8.130;2023-12-22T08:11:29;10.63;;;2.17;;
18949;SDS011;9608;49.288;8.130;2023-12-22T08:13:56;2.30;;;1.70;;
18949;SDS011;9608;49.288;8.130;2023-12-22T08:16:23;10.73;;;1.63;;
18949;SDS011;9608;49.288;8.130;2023-12-22T08:18:50;6.03;;;1.50;;
18949;SDS011;9608;49.288;8.130;2023-12-22T08:21:21;6.00;;;1.53;;
18949;SDS011;9608;49.288;8.130;2023-12-22T08:23:48;9.80;;;2.80;;
18949;SDS011;9608;49.288;8.130;2023-12-22T08:26:15;7.00;;;3.53;;
18949;SDS011;9608;49.288;8.130;2023-12-22T08:28:44;8.13;;;1.00;;
18949;SDS011;9608;49.288;8.130;2023-12-22T08:31:11;5.90;;;1.37;;
18949;SDS011;9608;49.288;8.130;2023-12-22T08:33:38;9.20;;;1.90;;
18949;SDS011;9608;49.288;8.130;2023-12-22T08:36:08;6.27;;;0.80;;
18949;SDS011;9608;49.288;8.130;2023-12-22T08:38:37;2.53;;;1.23;;
18949;SDS011;9608;49.288;8.130;2023-12-22T08:41:05;6.23;;;1.17;;
18949;SDS011;9608;49.288;8.130;2023-12-22T08:43:33;7.07;;;2.00;;
18949;SDS011;9608;49.288;8.130;2023-12-22T08:46:00;8.93;;;1.67;;
18949;SDS011;9608;49.288;8.130;2023-12-22T08:48:29;3.80;;;0.93;;
18949;SDS011;9608;49.288;8.130;2023-12-22T08:50:56;3.47;;;1.90;;
18949;SDS011;9608;49.288;8.130;2023-12-22T08:53:23;12.83;;;2.13;;
18949;SDS011;9608;49.288;8.130;2023-12-22T08:55:52;3.37;;;2.07;;
18949;SDS011;9608;49.288;8.130;2023-12-22T08:58:21;2.67;;;1.13;;
18949;SDS011;9608;49.288;8.130;2023-12-22T09:00:48;5.23;;;1.43;;
18949;SDS011;9608;49.288;8.130;2023-12-22T09:03:16;4.43;;;1.33;;
18949;SDS011;9608;49.288;8.130;2023-12-22T09:05:43;10.43;;;2.00;;
18949;SDS011;9608;49.288;8.130;2023-12-22T09:08:10;15.70;;;3.40;;
18949;SDS011;9608;49.288;8.130;2023-12-22T09:10:37;23.63;;;3.47;;
18949;SDS011;9608;49.288;8.130;2023-12-22T09:13:07;2.30;;;1.27;;
18949;SDS011;9608;49.288;8.130;2023-12-22T09:15:34;4.17;;;1.87;;
18949;SDS011;9608;49.288;8.130;2023-12-22T09:18:01;6.77;;;1.47;;
18949;SDS011;9608;49.288;8.130;2023-12-22T09:20:29;7.43;;;1.70;;
18949;SDS011;9608;49.288;8.130;2023-12-22T09:22:56;7.73;;;2.07;;
18949;SDS011;9608;49.288;8.130;2023-12-22T09:25:23;13.30;;;2.47;;
18949;SDS011;9608;49.288;8.130;2023-12-22T09:27:51;1.50;;;0.93;;
18949;SDS011;9608;49.288;8.130;2023-12-22T09:30:20;2.37;;;0.90;;
18949;SDS011;9608;49.288;8.130;2023-12-22T09:32:47;4.80;;;2.33;;
18949;SDS011;9608;49.288;8.130;2023-12-22T09:35:14;3.00;;;2.03;;
18949;SDS011;9608;49.288;8.130;2023-12-22T09:37:42;8.73;;;2.07;;
18949;SDS011;9608;49.288;8.130;2023-12-22T09:40:09;19.10;;;2.50;;
18949;SDS011;9608;49.288;8.130;2023-12-22T09:42:38;3.20;;;1.30;;
18949;SDS011;9608;49.288;8.130;2023-12-22T09:45:09;5.37;;;1.47;;
18949;SDS011;9608;49.288;8.130;2023-12-22T09:47:40;7.33;;;2.90;;
18949;SDS011;9608;49.288;8.130;2023-12-22T09:50:09;10.47;;;2.33;;
18949;SDS011;9608;49.288;8.130;2023-12-22T09:52:36;4.97;;;2.40;;
18949;SDS011;9608;49.288;8.130;2023-12-22T09:55:06;4.30;;;2.83;;
18949;SDS011;9608;49.288;8.130;2023-12-22T09:57:35;6.00;;;3.17;;
18949;SDS011;9608;49.288;8.130;2023-12-22T10:00:03;14.20;;;2.27;;
18949;SDS011;9608;49.288;8.130;2023-12-22T10:02:33;5.00;;;2.00;;
18949;SDS011;9608;49.288;8.130;2023-12-22T10:05:04;3.10;;;1.90;;
18949;SDS011;9608;49.288;8.130;2023-12-22T10:07:31;3.27;;;1.50;;
18949;SDS011;9608;49.288;8.130;2023-12-22T10:09:59;5.13;;;2.40;;
18949;SDS011;9608;49.288;8.130;2023-12-22T10:12:27;10.30;;;2.93;;
18949;SDS011;9608;49.288;8.130;2023-12-22T10:14:57;15.23;;;4.10;;
18949;SDS011;9608;49.288;8.130;2023-12-22T10:17:27;11.87;;;3.00;;
18949;SDS011;9608;49.288;8.130;2023-12-22T10:19:55;4.63;;;1.50;;
18949;SDS011;9608;49.288;8.130;2023-12-22T10:22:23;11.87;;;2.70;;
18949;SDS011;9608;49.288;8.130;2023-12-22T10:24:50;7.40;;;1.73;;
18949;SDS011;9608;49.288;8.130;2023-12-22T10:27:18;13.10;;;2.63;;
18949;SDS011;9608;49.288;8.130;2023-12-22T10:29:47;4.50;;;1.87;;
18949;SDS011;9608;49.288;8.130;2023-12-22T10:32:14;5.00;;;1.10;;
18949;SDS011;9608;49.288;8.130;2023-12-22T10:34:41;2.33;;;1.03;;
18949;SDS011;9608;49.288;8.130;2023-12-22T10:37:09;6.40;;;1.60;;
18949;SDS011;9608;49.288;8.130;2023-12-22T10:39:39;3.60;;;1.10;;
18949;SDS011;9608;49.288;8.130;2023-12-22T10:42:06;6.53;;;2.33;;
18949;SDS011;9608;49.288;8.130;2023-12-22T10:44:33;4.50;;;0.83;;
18949;SDS011;9608;49.288;8.130;2023-12-22T10:47:01;8.27;;;2.50;;
18949;SDS011;9608;49.288;8.130;2023-12-22T10:49:28;5.17;;;1.97;;
18949;SDS011;9608;49.288;8.130;2023-12-22T10:51:56;7.90;;;2.60;;
18949;SDS011;9608;49.288;8.130;2023-12-22T10:54:23;5.47;;;1.70;;
18949;SDS011;9608;49.288;8.130;2023-12-22T10:56:51;5.80;;;1.93;;
18949;SDS011;9608;49.288;8.130;2023-12-22T10:59:18;1.70;;;0.80;;
18949;SDS011;9608;49.288;8.130;2023-12-22T11:01:48;6.37;;;1.33;;
18949;SDS011;9608;49.288;8.130;2023-12-22T11:04:19;3.97;;;0.80;;
18949;SDS011;9608;49.288;8.130;2023-12-22T11:06:48;3.43;;;1.00;;
18949;SDS011;9608;49.288;8.130;2023-12-22T11:09:17;3.27;;;1.97;;
18949;SDS011;9608;49.288;8.130;2023-12-22T11:11:49;2.40;;;1.03;;
18949;SDS011;9608;49.288;8.130;2023-12-22T11:14:19;7.53;;;2.27;;
18949;SDS011;9608;49.288;8.130;2023-12-22T11:16:47;2.90;;;1.27;;
18949;SDS011;9608;49.288;8.130;2023-12-22T11:19:14;3.83;;;0.83;;
18949;SDS011;9608;49.288;8.130;2023-12-22T11:21:41;6.53;;;1.43;;
18949;SDS011;9608;49.288;8.130;2023-12-22T11:24:09;4.80;;;1.10;;
18949;SDS011;9608;49.288;8.130;2023-12-22T11:26:38;3.17;;;1.67;;
18949;SDS011;9608;49.288;8.130;2023-12-22T11:29:09;5.43;;;1.57;;
18949;SDS011;9608;49.288;8.130;2023-12-22T11:31:37;1.40;;;0.53;;
18949;SDS011;9608;49.288;8.130;2023-12-22T11:34:06;4.80;;;0.90;;
18949;SDS011;9608;49.288;8.130;2023-12-22T11:36:34;1.30;;;0.50;;
18949;SDS011;9608;49.288;8.130;2023-12-22T11:39:04;6.37;;;1.53;;
18949;SDS011;9608;49.288;8.130;2023-12-22T11:41:31;1.43;;;0.40;;
18949;SDS011;9608;49.288;8.130;2023-12-22T11:44:01;9.07;;;0.80;;
18949;SDS011;9608;49.288;8.130;2023-12-22T11:46:31;2.63;;;0.77;;
18949;SDS011;9608;49.288;8.130;2023-12-22T11:48:59;4.90;;;1.03;;
18949;SDS011;9608;49.288;8.130;2023-12-22T11:51:30;2.33;;;0.40;;
18949;SDS011;9608;49.288;8.130;2023-12-22T11:53:59;2.80;;;0.70;;
18949;SDS011;9608;49.288;8.130;2023-12-22T11:56:26;2.63;;;0.63;;
18949;SDS011;9608;49.288;8.130;2023-12-22T11:58:54;3.47;;;0.27;;
18949;SDS011;9608;49.288;8.130;2023-12-22T12:01:24;1.23;;;0.27;;
18949;SDS011;9608;49.288;8.130;2023-12-22T12:03:55;1.83;;;0.53;;
18949;SDS011;9608;49.288;8.130;2023-12-22T12:06:30;1.40;;;0.20;;
18949;SDS011;9608;49.288;8.130;2023-12-22T12:08:59;1.40;;;0.50;;
18949;SDS011;9608;49.288;8.130;2023-12-22T12:14:29;2.47;;;0.70;;
18949;SDS011;9608;49.288;8.130;2023-12-22T12:16:59;3.27;;;0.57;;
18949;SDS011;9608;49.288;8.130;2023-12-22T12:19:34;14.13;;;0.77;;
18949;SDS011;9608;49.288;8.130;2023-12-22T12:22:02;1.30;;;0.40;;
18949;SDS011;9608;49.288;8.130;2023-12-22T12:24:29;2.93;;;0.50;;
18949;SDS011;9608;49.288;8.130;2023-12-22T12:26:56;1.70;;;0.70;;
18949;SDS011;9608;49.288;8.130;2023-12-22T12:29:23;3.00;;;0.57;;
18949;SDS011;9608;49.288;8.130;2023-12-22T12:31:50;1.70;;;0.53;;
18949;SDS011;9608;49.288;8.130;2023-12-22T12:34:17;1.87;;;0.40;;
18949;SDS011;9608;49.288;8.130;2023-12-22T12:36:47;2.07;;;0.40;;
18949;SDS011;9608;49.288;8.130;2023-12-22T12:39:14;1.30;;;0.30;;
18949;SDS011;9608;49.288;8.130;2023-12-22T12:41:42;1.23;;;0.33;;
18949;SDS011;9608;49.288;8.130;2023-12-22T12:44:10;3.10;;;0.53;;
18949;SDS011;9608;49.288;8.130;2023-12-22T12:46:37;1.20;;;0.20;;
18949;SDS011;9608;49.288;8.130;2023-12-22T12:49:07;3.10;;;0.77;;
18949;SDS011;9608;49.288;8.130;2023-12-22T12:51:36;1.20;;;0.30;;
18949;SDS011;9608;49.288;8.130;2023-12-22T12:54:05;1.30;;;0.30;;
18949;SDS011;9608;49.288;8.130;2023-12-22T12:56:36;1.20;;;0.30;;
18949;SDS011;9608;49.288;8.130;2023-12-22T12:59:06;1.30;;;0.40;;
18949;SDS011;9608;49.288;8.130;2023-12-22T13:01:37;2.57;;;0.47;;
18949;SDS011;9608;49.288;8.130;2023-12-22T13:04:04;1.20;;;0.20;;
18949;SDS011;9608;49.288;8.130;2023-12-22T13:06:31;1.30;;;0.30;;
18949;SDS011;9608;49.288;8.130;2023-12-22T13:08:58;2.60;;;0.77;;
18949;SDS011;9608;49.288;8.130;2023-12-22T13:11:27;1.20;;;0.23;;
18949;SDS011;9608;49.288;8.130;2023-12-22T13:13:56;1.20;;;0.20;;
18949;SDS011;9608;49.288;8.130;2023-12-22T13:16:23;1.30;;;0.30;;
18949;SDS011;9608;49.288;8.130;2023-12-22T13:18:52;1.43;;;0.30;;
18949;SDS011;9608;49.288;8.130;2023-12-22T13:21:22;1.30;;;0.30;;
18949;SDS011;9608;49.288;8.130;2023-12-22T13:26:36;1.40;;;0.40;;
18949;SDS011;9608;49.288;8.130;2023-12-22T13:29:03;1.40;;;0.37;;
18949;SDS011;9608;49.288;8.130;2023-12-22T13:31:30;2.60;;;1.07;;
18949;SDS011;9608;49.288;8.130;2023-12-22T13:33:57;1.33;;;0.40;;
18949;SDS011;9608;49.288;8.130;2023-12-22T13:36:24;1.50;;;0.30;;
18949;SDS011;9608;49.288;8.130;2023-12-22T13:38:51;1.53;;;0.40;;
18949;SDS011;9608;49.288;8.130;2023-12-22T13:41:18;1.70;;;0.50;;
18949;SDS011;9608;49.288;8.130;2023-12-22T13:43:47;1.30;;;0.30;;
18949;SDS011;9608;49.288;8.130;2023-12-22T13:46:13;1.30;;;0.40;;
18949;SDS011;9608;49.288;8.130;2023-12-22T13:48:40;1.50;;;0.30;;
18949;SDS011;9608;49.288;8.130;2023-12-22T13:51:07;1.30;;;0.40;;
18949;SDS011;9608;49.288;8.130;2023-12-22T13:53:35;1.20;;;0.20;;
18949;SDS011;9608;49.288;8.130;2023-12-22T13:56:02;1.17;;;0.20;;
18949;SDS011;9608;49.288;8.130;2023-12-22T13:58:29;8.70;;;0.93;;
18949;SDS011;9608;49.288;8.130;2023-12-22T14:00:57;1.20;;;0.27;;
18949;SDS011;9608;49.288;8.130;2023-12-22T14:03:23;1.40;;;0.40;;
18949;SDS011;9608;49.288;8.130;2023-12-22T14:05:52;1.30;;;0.30;;
18949;SDS011;9608;49.288;8.130;2023-12-22T14:08:20;4.50;;;0.57;;
18949;SDS011;9608;49.288;8.130;2023-12-22T14:10:47;1.40;;;0.40;;
18949;SDS011;9608;49.288;8.130;2023-12-22T14:13:14;1.20;;;0.23;;
18949;SDS011;9608;49.288;8.130;2023-12-22T14:15:41;1.30;;;0.20;;
18949;SDS011;9608;49.288;8.130;2023-12-22T14:18:09;1.37;;;0.30;;
18949;SDS011;9608;49.288;8.130;2023-12-22T14:20:36;1.20;;;0.20;;
18949;SDS011;9608;49.288;8.130;2023-12-22T14:23:03;5.73;;;0.30;;
18949;SDS011;9608;49.288;8.130;2023-12-22T14:25:29;2.07;;;0.50;;
18949;SDS011;9608;49.288;8.130;2023-12-22T14:27:56;1.83;;;0.50;;
18949;SDS011;9608;49.288;8.130;2023-12-22T14:30:24;1.93;;;0.60;;
18949;SDS011;9608;49.288;8.130;2023-12-22T14:32:51;1.33;;;0.30;;
18949;SDS011;9608;49.288;8.130;2023-12-22T14:35:19;1.30;;;0.30;;
18949;SDS011;9608;49.288;8.130;2023-12-22T14:37:46;1.13;;;0.20;;
18949;SDS011;9608;49.288;8.130;2023-12-22T14:40:13;1.63;;;0.57;;
18949;SDS011;9608;49.288;8.130;2023-12-22T14:42:39;2.90;;;0.87;;
18949;SDS011;9608;49.288;8.130;2023-12-22T14:45:06;1.20;;;0.40;;
18949;SDS011;9608;49.288;8.130;2023-12-22T14:47:34;1.83;;;0.30;;
18949;SDS011;9608;49.288;8.130;2023-12-22T14:50:00;1.50;;;0.40;;
18949;SDS011;9608;49.288;8.130;2023-12-22T14:52:30;3.10;;;0.80;;
18949;SDS011;9608;49.288;8.130;2023-12-22T14:54:57;1.20;;;0.30;;
18949;SDS011;9608;49.288;8.130;2023-12-22T14:57:24;1.80;;;0.53;;
18949;SDS011;9608;49.288;8.130;2023-12-22T14:59:51;1.37;;;0.30;;
18949;SDS011;9608;49.288;8.130;2023-12-22T15:02:17;5.03;;;0.60;;
18949;SDS011;9608;49.288;8.130;2023-12-22T15:04:44;2.20;;;0.60;;
18949;SDS011;9608;49.288;8.130;2023-12-22T15:07:14;1.40;;;0.30;;
18949;SDS011;9608;49.288;8.130;2023-12-22T15:09:42;3.00;;;0.40;;
18949;SDS011;9608;49.288;8.130;2023-12-22T15:12:09;4.40;;;0.80;;
18949;SDS011;9608;49.288;8.130;2023-12-22T15:14:36;3.80;;;0.50;;